createdAt,value
2023-04-25T00:01:53.634Z,13.40
2023-04-25T00:04:23.010Z,13.60
2023-04-25T00:06:50.007Z,13.50
2023-04-25T00:09:16.791Z,13.40
2023-04-25T00:11:43.591Z,13.40
2023-04-25T00:14:10.994Z,13.40
2023-04-25T00:16:37.886Z,13.40
2023-04-25T00:19:04.607Z,13.30
2023-04-25T00:21:32.724Z,13.40
2023-04-25T00:24:00.290Z,13.40
2023-04-25T00:26:27.237Z,13.30
2023-04-25T00:28:54.075Z,13.40
2023-04-25T00:31:20.899Z,13.50
2023-04-25T00:33:47.769Z,13.40
2023-04-25T00:36:15.883Z,13.50
2023-04-25T00:38:42.608Z,13.40
2023-04-25T00:41:09.443Z,13.30
2023-04-25T00:43:38.430Z,13.30
2023-04-25T00:46:05.352Z,13.30
2023-04-25T00:48:32.207Z,13.30
2023-04-25T00:51:00.229Z,13.30
2023-04-25T00:53:29.116Z,13.40
2023-04-25T00:55:56.409Z,13.40
2023-04-25T00:58:24.218Z,13.30
2023-04-25T01:00:53.217Z,13.30
2023-04-25T01:03:23.787Z,13.30
2023-04-25T01:05:51.939Z,13.30
2023-04-25T01:08:18.761Z,13.30
2023-04-25T01:10:45.473Z,13.30
2023-04-25T01:13:12.303Z,13.20
2023-04-25T01:15:39.218Z,13.30
2023-04-25T01:18:07.472Z,13.40
2023-04-25T01:20:35.045Z,13.40
2023-04-25T01:23:03.936Z,13.30
2023-04-25T01:25:33.775Z,13.30
2023-04-25T01:28:01.016Z,13.30
2023-04-25T01:30:28.496Z,13.30
2023-04-25T01:32:57.623Z,13.40
2023-04-25T01:35:25.089Z,13.20
2023-04-25T01:37:52.865Z,13.30
2023-04-25T01:40:21.315Z,13.30
2023-04-25T01:42:48.236Z,13.30
2023-04-25T01:45:15.282Z,13.20
2023-04-25T01:47:43.946Z,13.20
2023-04-25T01:50:12.276Z,13.30
2023-04-25T01:52:39.318Z,13.30
2023-04-25T01:55:15.255Z,13.20
2023-04-25T01:57:42.574Z,13.20
2023-04-25T02:00:10.190Z,13.20
2023-04-25T02:02:37.270Z,13.30
2023-04-25T02:05:04.760Z,13.30
2023-04-25T02:07:31.561Z,13.20
2023-04-25T02:09:58.310Z,13.10
2023-04-25T02:12:27.241Z,13.10
2023-04-25T02:14:54.116Z,13.10
2023-04-25T02:17:22.375Z,13.00
2023-04-25T02:19:49.409Z,13.00
2023-04-25T02:22:16.138Z,12.90
2023-04-25T02:24:42.984Z,13.00
2023-04-25T02:27:10.126Z,12.90
2023-04-25T02:29:37.116Z,13.00
2023-04-25T02:32:04.070Z,13.00
2023-04-25T02:34:30.931Z,13.00
2023-04-25T02:36:57.669Z,13.00
2023-04-25T02:39:26.150Z,13.00
2023-04-25T02:41:53.763Z,13.00
2023-04-25T02:44:21.061Z,13.00
2023-04-25T02:46:48.283Z,13.00
2023-04-25T02:49:15.112Z,12.90
2023-04-25T02:51:41.850Z,12.90
2023-04-25T02:54:08.608Z,13.00
2023-04-25T02:56:35.580Z,13.00
2023-04-25T02:59:02.354Z,13.00
2023-04-25T03:01:29.150Z,13.00
2023-04-25T03:03:56.193Z,13.00
2023-04-25T03:06:23.035Z,12.90
2023-04-25T03:08:49.822Z,12.90
2023-04-25T03:11:16.575Z,12.90
2023-04-25T03:13:43.417Z,12.90
2023-04-25T03:16:10.302Z,12.80
2023-04-25T03:18:37.096Z,12.90
2023-04-25T03:21:04.065Z,12.90
2023-04-25T03:23:31.380Z,12.90
2023-04-25T03:25:58.254Z,12.80
2023-04-25T03:28:25.174Z,12.90
2023-04-25T03:30:51.879Z,12.80
2023-04-25T03:33:18.652Z,12.80
2023-04-25T03:35:45.715Z,12.80
2023-04-25T03:38:12.519Z,12.80
2023-04-25T03:40:39.313Z,12.80
2023-04-25T03:43:06.190Z,12.80
2023-04-25T03:45:33.004Z,12.80
2023-04-25T03:47:59.833Z,12.80
2023-04-25T03:50:26.666Z,12.80
2023-04-25T03:52:53.466Z,12.90
2023-04-25T03:55:21.036Z,12.80
2023-04-25T03:57:47.921Z,12.80
2023-04-25T04:00:15.229Z,12.80
2023-04-25T04:02:44.650Z,12.80
2023-04-25T04:05:12.293Z,12.70
2023-04-25T04:07:41.070Z,12.90
2023-04-25T04:10:08.986Z,12.90
2023-04-25T04:12:35.822Z,12.80
2023-04-25T04:15:07.556Z,12.90
2023-04-25T04:17:35.038Z,12.90
2023-04-25T04:20:01.812Z,12.80
2023-04-25T04:22:28.617Z,13.00
2023-04-25T04:24:56.209Z,13.00
2023-04-25T04:27:23.688Z,13.00
2023-04-25T04:29:52.706Z,13.00
2023-04-25T04:32:19.853Z,13.10
2023-04-25T04:34:48.487Z,13.10
2023-04-25T04:37:15.816Z,13.00
2023-04-25T04:39:42.737Z,13.00
2023-04-25T04:42:09.706Z,12.90
2023-04-25T04:44:36.580Z,12.90
2023-04-25T04:47:07.234Z,12.90
2023-04-25T04:49:34.523Z,12.90
2023-04-25T04:52:01.816Z,12.80
2023-04-25T04:54:28.657Z,12.90
2023-04-25T04:56:55.785Z,12.90
2023-04-25T04:59:22.676Z,12.90
2023-04-25T05:01:49.514Z,12.90
2023-04-25T05:04:16.446Z,12.90
2023-04-25T05:06:46.870Z,12.90
2023-04-25T05:09:16.164Z,12.90
2023-04-25T05:11:42.964Z,12.90
2023-04-25T05:14:09.736Z,13.00
2023-04-25T05:16:36.645Z,13.00
2023-04-25T05:19:03.419Z,13.10
2023-04-25T05:21:30.151Z,13.20
2023-04-25T05:23:56.955Z,13.10
2023-04-25T05:26:23.746Z,13.00
2023-04-25T05:28:51.992Z,13.00
2023-04-25T05:31:18.850Z,12.90
2023-04-25T05:33:45.836Z,13.10
2023-04-25T05:36:12.929Z,13.10
2023-04-25T05:38:39.743Z,13.10
2023-04-25T05:41:06.757Z,13.10
2023-04-25T05:43:33.627Z,13.10
2023-04-25T05:46:00.912Z,13.00
2023-04-25T05:48:27.642Z,13.30
2023-04-25T05:50:54.561Z,13.00
2023-04-25T05:53:22.959Z,13.00
2023-04-25T05:55:49.737Z,13.00
2023-04-25T05:58:16.596Z,13.00
2023-04-25T06:00:43.366Z,13.00
2023-04-25T06:03:15.894Z,13.10
2023-04-25T06:05:45.312Z,13.10
2023-04-25T06:08:12.170Z,13.10
2023-04-25T06:10:39.195Z,13.20
2023-04-25T06:13:06.637Z,13.20
2023-04-25T06:15:33.585Z,13.10
2023-04-25T06:18:01.294Z,13.30
2023-04-25T06:20:28.194Z,13.30
2023-04-25T06:22:55.259Z,13.30
2023-04-25T06:25:22.282Z,13.40
2023-04-25T06:27:49.272Z,13.40
2023-04-25T06:30:17.609Z,13.50
2023-04-25T06:32:44.356Z,13.40
2023-04-25T06:35:11.416Z,13.40
2023-04-25T06:37:38.548Z,13.60
2023-04-25T06:40:06.118Z,13.50
2023-04-25T06:42:32.839Z,13.50
2023-04-25T06:44:59.797Z,13.60
2023-04-25T06:47:26.672Z,13.60
2023-04-25T06:49:53.799Z,13.60
2023-04-25T06:52:20.753Z,13.60
2023-04-25T06:54:47.807Z,15.00
2023-04-25T06:57:14.651Z,13.60
2023-04-25T06:59:41.506Z,13.70
2023-04-25T07:02:08.423Z,13.80
2023-04-25T07:04:35.683Z,13.80
2023-04-25T07:07:04.534Z,14.00
2023-04-25T07:09:31.339Z,13.90
2023-04-25T07:11:58.215Z,14.00
2023-04-25T07:14:25.379Z,14.10
2023-04-25T07:16:52.454Z,14.20
2023-04-25T07:19:19.343Z,14.20
2023-04-25T07:21:46.109Z,14.20
2023-04-25T07:24:13.165Z,14.20
2023-04-25T07:26:40.143Z,14.00
2023-04-25T07:29:07.223Z,14.20
2023-04-25T07:31:34.657Z,14.10
2023-04-25T07:34:02.130Z,14.00
2023-04-25T07:36:29.264Z,14.10
2023-04-25T07:38:56.120Z,14.10
2023-04-25T07:41:23.223Z,14.20
2023-04-25T07:43:50.058Z,14.20
2023-04-25T07:46:17.142Z,14.20
2023-04-25T07:48:43.960Z,14.30
2023-04-25T07:51:10.960Z,14.30
2023-04-25T07:53:38.734Z,14.30
2023-04-25T07:56:05.991Z,14.20
2023-04-25T07:58:32.923Z,14.30
2023-04-25T08:01:00.029Z,14.20
2023-04-25T08:03:27.234Z,14.20
2023-04-25T08:05:54.525Z,14.20
2023-04-25T08:08:21.450Z,14.10
2023-04-25T08:10:49.439Z,14.10
2023-04-25T08:13:18.812Z,14.10
2023-04-25T08:15:45.877Z,14.10
2023-04-25T08:18:14.176Z,14.10
2023-04-25T08:20:42.678Z,14.10
2023-04-25T08:23:09.493Z,14.10
2023-04-25T08:25:36.489Z,14.30
2023-04-25T08:28:04.133Z,14.10
2023-04-25T08:30:31.362Z,14.10
2023-04-25T08:32:58.828Z,14.20
2023-04-25T08:35:25.976Z,14.10
2023-04-25T08:37:53.424Z,14.10
2023-04-25T08:40:27.083Z,14.10
2023-04-25T08:42:55.470Z,14.20
2023-04-25T08:45:22.720Z,14.20
2023-04-25T08:47:53.213Z,14.10
2023-04-25T08:50:22.554Z,14.10
2023-04-25T08:52:53.759Z,14.10
2023-04-25T08:55:22.835Z,14.10
2023-04-25T08:57:50.701Z,14.20
2023-04-25T09:00:19.369Z,14.10
2023-04-25T09:02:47.945Z,14.20
2023-04-25T09:05:15.606Z,14.10
2023-04-25T09:07:42.441Z,14.20
2023-04-25T09:10:09.841Z,14.20
2023-04-25T09:12:37.037Z,14.00
2023-04-25T09:15:12.456Z,14.00
2023-04-25T09:17:42.535Z,13.90
2023-04-25T09:20:10.355Z,14.00
2023-04-25T09:22:38.679Z,13.90
2023-04-25T09:25:10.834Z,14.00
2023-04-25T09:27:50.460Z,14.10
2023-04-25T09:30:18.116Z,14.10
2023-04-25T09:32:46.345Z,14.00
2023-04-25T09:35:26.010Z,14.00
2023-04-25T09:37:52.898Z,14.10
2023-04-25T09:40:20.092Z,14.10
2023-04-25T09:42:46.956Z,13.00
2023-04-25T09:45:17.015Z,14.20
2023-04-25T09:47:45.124Z,14.10
2023-04-25T09:50:16.950Z,14.10
2023-04-25T09:52:44.086Z,14.00
2023-04-25T09:55:10.965Z,14.00
2023-04-25T09:57:41.053Z,13.90
2023-04-25T10:00:13.124Z,13.80
2023-04-25T10:02:43.689Z,13.70
2023-04-25T10:05:12.669Z,13.60
2023-04-25T10:07:41.208Z,13.60
2023-04-25T10:10:08.776Z,13.50
2023-04-25T10:12:35.676Z,13.60
2023-04-25T10:15:03.932Z,13.70
2023-04-25T10:17:30.962Z,13.80
2023-04-25T10:19:59.001Z,13.80
2023-04-25T10:22:36.492Z,13.80
2023-04-25T10:25:07.032Z,13.70
2023-04-25T10:27:34.819Z,13.70
2023-04-25T10:30:15.396Z,13.60
2023-04-25T10:32:46.657Z,13.70
2023-04-25T10:35:18.542Z,13.80
2023-04-25T10:38:11.063Z,13.80
2023-04-25T10:40:38.036Z,13.80
2023-04-25T10:43:30.043Z,13.80
2023-04-25T10:45:56.852Z,13.80
2023-04-25T10:48:28.090Z,13.70
2023-04-25T10:51:21.458Z,13.80
2023-04-25T10:54:04.729Z,13.70
2023-04-25T10:56:33.578Z,13.50
2023-04-25T10:59:12.062Z,13.50
2023-04-25T11:01:41.912Z,13.40
2023-04-25T11:04:30.239Z,13.30
2023-04-25T11:07:32.428Z,13.30
2023-04-25T11:10:03.926Z,13.20
2023-04-25T11:12:32.825Z,13.00
2023-04-25T11:15:07.665Z,12.90
2023-04-25T11:17:35.001Z,12.80
2023-04-25T11:20:02.406Z,12.60
2023-04-25T11:22:29.696Z,12.40
2023-04-25T11:24:56.542Z,12.40
2023-04-25T11:27:25.703Z,12.30
2023-04-25T11:29:52.917Z,12.20
2023-04-25T11:32:21.415Z,12.20
2023-04-25T11:34:48.656Z,12.20
2023-04-25T11:37:15.973Z,12.00
2023-04-25T11:39:49.469Z,12.00
2023-04-25T11:42:16.749Z,11.90
2023-04-25T11:44:44.566Z,11.80
2023-04-25T11:47:11.344Z,11.80
2023-04-25T11:49:38.219Z,11.80
2023-04-25T11:52:08.282Z,11.70
2023-04-25T11:54:38.487Z,11.70
2023-04-25T11:57:05.594Z,11.50
2023-04-25T11:59:32.585Z,11.40
2023-04-25T12:01:59.544Z,11.60
2023-04-25T12:04:27.379Z,11.30
2023-04-25T12:06:56.557Z,11.30
2023-04-25T12:09:32.022Z,11.60
2023-04-25T12:12:00.572Z,11.10
2023-04-25T12:14:29.678Z,11.20
2023-04-25T12:16:58.877Z,11.70
2023-04-25T12:19:26.951Z,11.00
2023-04-25T12:21:58.444Z,11.10
2023-04-25T12:24:28.384Z,11.00
2023-04-25T12:27:04.785Z,11.10
2023-04-25T12:29:41.852Z,11.20
2023-04-25T12:32:16.371Z,11.20
2023-04-25T12:34:43.635Z,11.30
2023-04-25T12:37:11.369Z,11.30
2023-04-25T12:39:38.445Z,11.10
2023-04-25T12:42:08.605Z,11.40
2023-04-25T12:44:36.242Z,11.50
2023-04-25T12:47:04.250Z,11.50
2023-04-25T12:49:31.616Z,11.70
2023-04-25T12:51:58.794Z,11.70
2023-04-25T12:54:26.680Z,11.90
2023-04-25T12:56:53.738Z,11.80
2023-04-25T12:59:21.883Z,11.90
2023-04-25T13:01:48.830Z,12.00
2023-04-25T13:04:16.308Z,12.10
2023-04-25T13:06:43.673Z,12.20
2023-04-25T13:09:10.634Z,12.20
2023-04-25T13:11:37.627Z,12.40
2023-04-25T13:14:04.737Z,12.50
2023-04-25T13:16:31.638Z,12.60
2023-04-25T13:18:59.140Z,12.70
2023-04-25T13:21:26.509Z,12.80
2023-04-25T13:23:53.956Z,12.80
2023-04-25T13:26:21.575Z,12.80
2023-04-25T13:28:48.346Z,12.80
2023-04-25T13:31:15.508Z,12.80
2023-04-25T13:33:42.299Z,12.90
2023-04-25T13:36:09.264Z,12.90
2023-04-25T13:38:36.388Z,13.00
2023-04-25T13:41:03.321Z,13.00
2023-04-25T13:43:30.607Z,13.10
2023-04-25T13:45:57.469Z,13.00
2023-04-25T13:48:25.690Z,13.10
2023-04-25T13:50:52.526Z,13.10
2023-04-25T13:53:19.495Z,13.10
2023-04-25T13:55:47.374Z,13.10
2023-04-25T13:58:14.399Z,13.20
2023-04-25T14:00:44.248Z,13.20
2023-04-25T14:03:11.489Z,13.30
2023-04-25T14:05:39.434Z,13.20
2023-04-25T14:08:10.954Z,13.30
2023-04-25T14:10:38.318Z,13.10
2023-04-25T14:13:07.322Z,13.10
2023-04-25T14:15:36.095Z,13.10
2023-04-25T14:18:03.333Z,13.20
2023-04-25T14:20:30.935Z,13.20
2023-04-25T14:22:59.310Z,13.20
2023-04-25T14:25:26.899Z,13.20
2023-04-25T14:27:53.820Z,13.30
2023-04-25T14:30:21.832Z,13.30
2023-04-25T14:32:51.788Z,13.30
2023-04-25T14:35:19.019Z,13.30
2023-04-25T14:37:46.002Z,13.30
2023-04-25T14:40:14.268Z,13.40
2023-04-25T14:42:41.643Z,13.40
2023-04-25T14:45:09.750Z,13.30
2023-04-25T14:47:37.814Z,13.30
2023-04-25T14:50:05.792Z,13.40
2023-04-25T14:52:32.809Z,13.50
2023-04-25T14:55:01.460Z,13.60
2023-04-25T14:57:28.464Z,13.70
2023-04-25T14:59:55.469Z,13.70
2023-04-25T15:02:22.679Z,13.70
2023-04-25T15:04:49.892Z,13.70
2023-04-25T15:07:18.466Z,13.60
2023-04-25T15:09:45.800Z,13.80
2023-04-25T15:12:13.074Z,13.60
2023-04-25T15:14:39.841Z,13.50
2023-04-25T15:17:09.858Z,13.50
2023-04-25T15:19:37.520Z,13.40
2023-04-25T15:22:04.629Z,13.50
2023-04-25T15:24:31.624Z,13.40
2023-04-25T15:26:59.383Z,13.30
2023-04-25T15:29:27.198Z,13.10
2023-04-25T15:31:54.462Z,13.00
2023-04-25T15:34:21.446Z,12.90
2023-04-25T15:36:48.659Z,12.80
2023-04-25T15:39:15.636Z,12.70
2023-04-25T15:41:42.405Z,12.70
2023-04-25T15:44:11.256Z,12.60
2023-04-25T15:46:38.630Z,12.40
2023-04-25T15:49:05.474Z,12.50
2023-04-25T15:51:36.118Z,12.40
2023-04-25T15:54:04.129Z,12.50
2023-04-25T15:56:30.896Z,12.50
2023-04-25T15:58:57.759Z,12.50
2023-04-25T16:01:26.292Z,12.50
2023-04-25T16:03:53.869Z,12.50
2023-04-25T16:06:20.954Z,12.50
2023-04-25T16:08:47.686Z,12.40
2023-04-25T16:11:14.949Z,12.50
2023-04-25T16:13:41.809Z,12.50
2023-04-25T16:16:08.911Z,12.40
2023-04-25T16:18:35.859Z,12.30
2023-04-25T16:21:03.551Z,12.20
2023-04-25T16:23:31.351Z,12.30
2023-04-25T16:25:58.432Z,12.10
2023-04-25T16:28:25.463Z,11.90
2023-04-25T16:30:58.634Z,12.00
2023-04-25T16:33:25.660Z,11.90
2023-04-25T16:35:53.026Z,11.80
2023-04-25T16:38:20.169Z,11.70
2023-04-25T16:40:47.052Z,11.70
2023-04-25T16:43:13.809Z,11.70
2023-04-25T16:45:40.726Z,11.70
2023-04-25T16:48:07.650Z,11.70
2023-04-25T16:50:34.481Z,11.70
2023-04-25T16:53:01.261Z,11.60
2023-04-25T16:55:28.052Z,11.80
2023-04-25T16:57:55.202Z,11.70
2023-04-25T17:00:22.169Z,11.70
2023-04-25T17:02:49.100Z,11.70
2023-04-25T17:05:16.003Z,11.80
2023-04-25T17:07:42.739Z,11.80
2023-04-25T17:10:10.097Z,11.80
2023-04-25T17:12:37.180Z,11.90
2023-04-25T17:15:04.727Z,11.90
2023-04-25T17:17:31.566Z,11.90
2023-04-25T17:19:58.305Z,11.90
2023-04-25T17:22:25.162Z,12.00
2023-04-25T17:24:51.893Z,11.90
2023-04-25T17:27:18.674Z,12.00
2023-04-25T17:29:45.427Z,12.00
2023-04-25T17:32:12.563Z,12.10
2023-04-25T17:34:40.339Z,12.00
2023-04-25T17:37:09.643Z,12.10
2023-04-25T17:39:36.802Z,12.10
2023-04-25T17:42:03.731Z,12.10
2023-04-25T17:44:31.001Z,12.10
2023-04-25T17:46:57.867Z,12.20
2023-04-25T17:49:24.674Z,12.10
2023-04-25T17:51:51.518Z,12.20
2023-04-25T17:54:18.618Z,12.20
2023-04-25T17:56:46.122Z,12.20
2023-04-25T17:59:12.904Z,12.20
2023-04-25T18:01:42.164Z,12.20
2023-04-25T18:04:10.617Z,12.20
2023-04-25T18:06:37.882Z,12.20
2023-04-25T18:09:16.065Z,12.20
2023-04-25T18:11:46.866Z,12.20
2023-04-25T18:14:14.902Z,12.30
2023-04-25T18:16:47.225Z,12.20
2023-04-25T18:19:21.408Z,12.20
2023-04-25T18:21:49.777Z,12.30
2023-04-25T18:24:17.857Z,12.10
2023-04-25T18:26:45.883Z,12.20
2023-04-25T18:29:28.969Z,12.20
2023-04-25T18:31:58.878Z,12.40
2023-04-25T18:34:27.639Z,12.30
2023-04-25T18:36:56.302Z,12.30
2023-04-25T18:39:24.457Z,12.20
2023-04-25T18:41:55.084Z,12.20
2023-04-25T18:44:25.414Z,12.20
2023-04-25T18:46:52.683Z,12.30
2023-04-25T18:49:19.514Z,12.30
2023-04-25T18:51:46.888Z,12.30
2023-04-25T18:54:13.852Z,12.30
2023-04-25T18:56:41.277Z,12.30
2023-04-25T18:59:08.105Z,12.30
2023-04-25T19:01:35.288Z,12.20
2023-04-25T19:04:05.913Z,12.20
2023-04-25T19:06:33.588Z,12.20
2023-04-25T19:09:00.385Z,12.20
2023-04-25T19:11:27.321Z,12.30
2023-04-25T19:13:56.978Z,12.30
2023-04-25T19:16:26.231Z,12.20
2023-04-25T19:18:55.464Z,12.20
2023-04-25T19:21:22.933Z,12.20
2023-04-25T19:23:50.010Z,12.20
2023-04-25T19:26:17.180Z,12.20
2023-04-25T19:28:47.012Z,12.20
2023-04-25T19:31:13.854Z,12.10
2023-04-25T19:33:41.827Z,12.10
2023-04-25T19:36:08.750Z,12.10
2023-04-25T19:38:35.825Z,12.10
2023-04-25T19:41:02.568Z,12.20
2023-04-25T19:43:30.778Z,12.30
2023-04-25T19:45:57.764Z,12.30
2023-04-25T19:48:24.714Z,12.20
2023-04-25T19:50:52.020Z,12.20
2023-04-25T19:53:18.789Z,12.30
2023-04-25T19:55:45.556Z,12.20
2023-04-25T19:58:14.397Z,12.20
2023-04-25T20:00:41.328Z,12.10
2023-04-25T20:03:10.640Z,12.10
2023-04-25T20:05:37.727Z,12.10
2023-04-25T20:08:04.747Z,12.00
2023-04-25T20:10:31.927Z,12.00
2023-04-25T20:12:58.712Z,12.10
2023-04-25T20:15:25.686Z,12.10
2023-04-25T20:17:52.458Z,12.20
2023-04-25T20:20:20.110Z,12.10
2023-04-25T20:22:46.943Z,12.10
2023-04-25T20:25:13.785Z,12.10
2023-04-25T20:27:40.687Z,12.10
2023-04-25T20:30:09.001Z,12.10
2023-04-25T20:32:36.813Z,12.10
2023-04-25T20:35:05.176Z,12.00
2023-04-25T20:37:32.069Z,12.10
2023-04-25T20:40:03.905Z,12.10
2023-04-25T20:42:32.065Z,12.10
2023-04-25T20:44:58.933Z,12.10
2023-04-25T20:47:26.212Z,12.10
2023-04-25T20:49:53.089Z,12.20
2023-04-25T20:52:19.841Z,12.20
2023-04-25T20:54:50.522Z,12.20
2023-04-25T20:57:17.726Z,12.30
2023-04-25T20:59:44.921Z,12.20
2023-04-25T21:02:14.753Z,12.20
2023-04-25T21:04:44.191Z,12.20
2023-04-25T21:07:14.340Z,12.20
2023-04-25T21:09:42.614Z,12.10
2023-04-25T21:12:09.542Z,12.10
2023-04-25T21:14:36.453Z,12.00
2023-04-25T21:17:04.451Z,12.10
2023-04-25T21:19:31.550Z,12.10
2023-04-25T21:21:58.931Z,12.20
2023-04-25T21:24:27.245Z,12.20
2023-04-25T21:26:54.209Z,12.20
2023-04-25T21:29:20.991Z,12.20
2023-04-25T21:31:48.214Z,12.20
2023-04-25T21:34:15.011Z,12.30
2023-04-25T21:36:42.542Z,12.30
2023-04-25T21:39:10.825Z,12.30
2023-04-25T21:41:37.981Z,12.30
2023-04-25T21:44:04.935Z,12.20
2023-04-25T21:46:31.960Z,12.20
2023-04-25T21:48:58.910Z,12.10
2023-04-25T21:51:25.839Z,12.00
2023-04-25T21:53:52.955Z,12.10
2023-04-25T21:56:20.021Z,12.10
2023-04-25T21:58:46.972Z,12.10
2023-04-25T22:01:15.794Z,12.20
2023-04-25T22:03:42.980Z,12.30
2023-04-25T22:06:09.963Z,12.20
2023-04-25T22:08:37.405Z,12.30
2023-04-25T22:11:07.115Z,12.30
2023-04-25T22:13:33.959Z,12.20
2023-04-25T22:16:00.725Z,12.20
2023-04-25T22:18:27.519Z,12.20
2023-04-25T22:20:54.611Z,12.20
2023-04-25T22:23:21.349Z,12.20
2023-04-25T22:25:48.095Z,12.20
2023-04-25T22:28:15.180Z,12.20
2023-04-25T22:30:42.317Z,12.20
2023-04-25T22:33:09.184Z,12.20
2023-04-25T22:35:35.962Z,12.20
2023-04-25T22:38:03.642Z,12.20
2023-04-25T22:40:30.848Z,12.10
2023-04-25T22:42:57.931Z,12.20
2023-04-25T22:45:24.700Z,12.20
2023-04-25T22:47:51.583Z,12.20
2023-04-25T22:50:19.543Z,12.20
2023-04-25T22:52:47.992Z,12.20
2023-04-25T22:55:14.861Z,12.10
2023-04-25T22:57:42.430Z,12.00
2023-04-25T23:00:20.363Z,12.00
2023-04-25T23:02:47.945Z,12.00
2023-04-25T23:05:15.538Z,12.00
2023-04-25T23:07:43.642Z,12.00
2023-04-25T23:10:10.804Z,11.90
2023-04-25T23:12:37.909Z,11.90
2023-04-25T23:15:05.265Z,12.00
2023-04-25T23:17:32.467Z,12.00
2023-04-25T23:19:59.337Z,12.00
2023-04-25T23:22:26.215Z,11.90
2023-04-25T23:24:53.059Z,11.80
2023-04-25T23:27:19.859Z,11.90
2023-04-25T23:29:55.433Z,11.80
2023-04-25T23:32:22.978Z,11.70
2023-04-25T23:34:49.785Z,11.80
2023-04-25T23:37:17.008Z,11.80
2023-04-25T23:39:50.787Z,11.80
2023-04-25T23:42:18.190Z,11.80
2023-04-25T23:44:45.150Z,11.80
2023-04-25T23:47:13.920Z,11.80
2023-04-25T23:49:41.124Z,11.80
2023-04-25T23:52:08.049Z,11.90
2023-04-25T23:54:35.034Z,11.90
2023-04-25T23:57:04.383Z,11.90
2023-04-25T23:59:31.757Z,11.90
